< < Back
Terminal Aerodrome Forecast


Current Version              Previous Versions:   1  2  3  4  5  6  7  8  9  

Terminal Aerodrome Forecast

177
FTUS44 KMRX 221736
TAFCHA
TAF
KCHA 221736Z 2218/2318 02010G18KT P6SM FEW040
     FM230000 02003KT P6SM SKC
     FM231500 02006KT P6SM SKC=



Latest METAR

391
SAUS80 KWBC 231200 RRC
MTRCHA
METAR KCHA 231153Z 01006KT 10SM CLR 08/04 A3020 RMK AO2 SLP224 T00830044
10094 20078 50011


USA.gov is the U.S. government's official web portal to all federal, state and local government web resources and services.